Alcolu, South Carolina
Current Conditions -  °F | °C
As of 2:55 AM on Monday 24 Nov 2014 (Local Time) from KSMS Reporting Station
Overcast Overcast  
Wind Chill: 68°   Ceiling: 1800
Heat Index: 68°   Visibility: 10mi
Dew Point: 66°   Wind: 8mph
Humidity: 94%   Direction: 240°WSW
Pressure: 29.8"   Gusts: NA
Location:  33.75°N, 80.21°W
Report Text: KSMS 240755Z AUTO 24007KT 10SM OVC018 20/19 A2980 RMK AO2
Loading
Personal Weather Stations






























Interactive Weather Map New forecast layout! Learn more

10-Day Weather Forecast

Advertisements
Track Severe Weather on mobile